sensor_id;sensor_type;location;lat;lon;timestamp;P1;durP1;ratioP1;P2;durP2;ratioP2
16514;SDS011;8370;52.556;7.970;2023-02-18T00:01:01;6.50;;;1.37;;
16514;SDS011;8370;52.556;7.970;2023-02-18T00:03:28;3.77;;;1.20;;
16514;SDS011;8370;52.556;7.970;2023-02-18T00:05:54;5.63;;;1.37;;
16514;SDS011;8370;52.556;7.970;2023-02-18T00:08:20;8.57;;;1.57;;
16514;SDS011;8370;52.556;7.970;2023-02-18T00:10:46;7.53;;;1.20;;
16514;SDS011;8370;52.556;7.970;2023-02-18T00:13:12;8.73;;;1.30;;
16514;SDS011;8370;52.556;7.970;2023-02-18T00:15:38;4.47;;;1.17;;
16514;SDS011;8370;52.556;7.970;2023-02-18T00:18:03;3.10;;;0.93;;
16514;SDS011;8370;52.556;7.970;2023-02-18T00:20:29;6.50;;;1.07;;
16514;SDS011;8370;52.556;7.970;2023-02-18T00:22:57;7.17;;;1.90;;
16514;SDS011;8370;52.556;7.970;2023-02-18T00:25:23;10.33;;;1.47;;
16514;SDS011;8370;52.556;7.970;2023-02-18T00:27:49;7.83;;;1.60;;
16514;SDS011;8370;52.556;7.970;2023-02-18T00:30:14;6.53;;;1.67;;
16514;SDS011;8370;52.556;7.970;2023-02-18T00:32:40;8.10;;;0.80;;
16514;SDS011;8370;52.556;7.970;2023-02-18T00:35:05;10.40;;;1.40;;
16514;SDS011;8370;52.556;7.970;2023-02-18T00:37:31;6.03;;;2.00;;
16514;SDS011;8370;52.556;7.970;2023-02-18T00:39:56;10.17;;;1.87;;
16514;SDS011;8370;52.556;7.970;2023-02-18T00:42:22;9.67;;;1.40;;
16514;SDS011;8370;52.556;7.970;2023-02-18T00:44:47;8.67;;;1.37;;
16514;SDS011;8370;52.556;7.970;2023-02-18T00:47:13;5.13;;;1.20;;
16514;SDS011;8370;52.556;7.970;2023-02-18T00:49:38;5.87;;;1.40;;
16514;SDS011;8370;52.556;7.970;2023-02-18T00:52:05;10.27;;;1.03;;
16514;SDS011;8370;52.556;7.970;2023-02-18T00:54:30;10.23;;;1.70;;
16514;SDS011;8370;52.556;7.970;2023-02-18T00:56:56;5.00;;;1.40;;
16514;SDS011;8370;52.556;7.970;2023-02-18T00:59:21;8.30;;;1.60;;
16514;SDS011;8370;52.556;7.970;2023-02-18T01:01:47;9.17;;;2.27;;
16514;SDS011;8370;52.556;7.970;2023-02-18T01:04:12;5.33;;;1.70;;
16514;SDS011;8370;52.556;7.970;2023-02-18T01:06:38;5.07;;;1.60;;
16514;SDS011;8370;52.556;7.970;2023-02-18T01:09:04;6.60;;;2.00;;
16514;SDS011;8370;52.556;7.970;2023-02-18T01:11:29;7.97;;;1.97;;
16514;SDS011;8370;52.556;7.970;2023-02-18T01:13:55;6.10;;;1.47;;
16514;SDS011;8370;52.556;7.970;2023-02-18T01:16:21;9.93;;;1.80;;
16514;SDS011;8370;52.556;7.970;2023-02-18T01:18:46;7.43;;;1.67;;
16514;SDS011;8370;52.556;7.970;2023-02-18T01:21:12;7.57;;;1.60;;
16514;SDS011;8370;52.556;7.970;2023-02-18T01:23:38;8.90;;;2.07;;
16514;SDS011;8370;52.556;7.970;2023-02-18T01:26:04;9.03;;;2.00;;
16514;SDS011;8370;52.556;7.970;2023-02-18T01:28:30;7.87;;;1.67;;
16514;SDS011;8370;52.556;7.970;2023-02-18T01:30:56;10.03;;;1.50;;
16514;SDS011;8370;52.556;7.970;2023-02-18T01:33:22;4.80;;;1.40;;
16514;SDS011;8370;52.556;7.970;2023-02-18T01:35:48;7.63;;;1.70;;
16514;SDS011;8370;52.556;7.970;2023-02-18T01:38:13;4.80;;;1.37;;
16514;SDS011;8370;52.556;7.970;2023-02-18T01:40:43;7.50;;;1.50;;
16514;SDS011;8370;52.556;7.970;2023-02-18T01:43:12;7.60;;;1.80;;
16514;SDS011;8370;52.556;7.970;2023-02-18T01:53:48;7.17;;;1.53;;
16514;SDS011;8370;52.556;7.970;2023-02-18T01:56:19;9.83;;;1.80;;
16514;SDS011;8370;52.556;7.970;2023-02-18T01:58:49;10.17;;;2.30;;
16514;SDS011;8370;52.556;7.970;2023-02-18T02:01:18;12.77;;;2.43;;
16514;SDS011;8370;52.556;7.970;2023-02-18T02:03:43;7.83;;;1.67;;
16514;SDS011;8370;52.556;7.970;2023-02-18T02:06:11;6.27;;;2.20;;
16514;SDS011;8370;52.556;7.970;2023-02-18T02:08:43;10.80;;;2.37;;
16514;SDS011;8370;52.556;7.970;2023-02-18T02:11:20;10.27;;;2.40;;
16514;SDS011;8370;52.556;7.970;2023-02-18T02:14:07;13.33;;;2.37;;
16514;SDS011;8370;52.556;7.970;2023-02-18T02:24:49;9.60;;;2.97;;
16514;SDS011;8370;52.556;7.970;2023-02-18T02:33:45;11.53;;;3.33;;
16514;SDS011;8370;52.556;7.970;2023-02-18T02:38:54;10.97;;;2.93;;
16514;SDS011;8370;52.556;7.970;2023-02-18T02:46:45;14.57;;;5.20;;
16514;SDS011;8370;52.556;7.970;2023-02-18T02:49:23;17.13;;;6.27;;
16514;SDS011;8370;52.556;7.970;2023-02-18T02:52:14;24.50;;;8.37;;
16514;SDS011;8370;52.556;7.970;2023-02-18T02:54:47;20.37;;;8.50;;
16514;SDS011;8370;52.556;7.970;2023-02-18T02:59:42;22.87;;;10.30;;
16514;SDS011;8370;52.556;7.970;2023-02-18T03:02:22;26.93;;;11.63;;
16514;SDS011;8370;52.556;7.970;2023-02-18T03:13:15;32.13;;;14.27;;
16514;SDS011;8370;52.556;7.970;2023-02-18T03:15:54;32.07;;;15.07;;
16514;SDS011;8370;52.556;7.970;2023-02-18T03:18:30;30.40;;;15.67;;
16514;SDS011;8370;52.556;7.970;2023-02-18T03:21:08;33.90;;;16.70;;
16514;SDS011;8370;52.556;7.970;2023-02-18T03:23:56;31.33;;;17.10;;
16514;SDS011;8370;52.556;7.970;2023-02-18T03:26:26;34.93;;;17.67;;
16514;SDS011;8370;52.556;7.970;2023-02-18T03:28:55;38.40;;;18.20;;
16514;SDS011;8370;52.556;7.970;2023-02-18T03:31:26;34.83;;;17.87;;
16514;SDS011;8370;52.556;7.970;2023-02-18T03:34:04;39.07;;;20.27;;
16514;SDS011;8370;52.556;7.970;2023-02-18T03:36:36;39.53;;;17.53;;
16514;SDS011;8370;52.556;7.970;2023-02-18T03:39:20;33.20;;;13.83;;
16514;SDS011;8370;52.556;7.970;2023-02-18T03:41:48;42.57;;;18.37;;
16514;SDS011;8370;52.556;7.970;2023-02-18T03:44:14;40.90;;;19.70;;
16514;SDS011;8370;52.556;7.970;2023-02-18T03:46:40;39.10;;;18.27;;
16514;SDS011;8370;52.556;7.970;2023-02-18T03:49:08;38.77;;;18.93;;
16514;SDS011;8370;52.556;7.970;2023-02-18T03:51:35;43.40;;;18.83;;
16514;SDS011;8370;52.556;7.970;2023-02-18T03:54:00;51.77;;;19.93;;
16514;SDS011;8370;52.556;7.970;2023-02-18T03:56:26;42.53;;;19.03;;
16514;SDS011;8370;52.556;7.970;2023-02-18T03:58:51;44.27;;;19.07;;
16514;SDS011;8370;52.556;7.970;2023-02-18T04:01:17;49.63;;;19.47;;
16514;SDS011;8370;52.556;7.970;2023-02-18T04:03:42;40.17;;;18.87;;
16514;SDS011;8370;52.556;7.970;2023-02-18T04:06:08;44.30;;;18.83;;
16514;SDS011;8370;52.556;7.970;2023-02-18T04:08:33;43.67;;;19.87;;
16514;SDS011;8370;52.556;7.970;2023-02-18T04:10:59;44.90;;;20.83;;
16514;SDS011;8370;52.556;7.970;2023-02-18T04:13:25;39.20;;;19.30;;
16514;SDS011;8370;52.556;7.970;2023-02-18T04:15:51;41.50;;;19.80;;
16514;SDS011;8370;52.556;7.970;2023-02-18T04:18:17;44.20;;;18.80;;
16514;SDS011;8370;52.556;7.970;2023-02-18T04:20:43;44.40;;;17.03;;
16514;SDS011;8370;52.556;7.970;2023-02-18T04:23:10;42.20;;;17.97;;
16514;SDS011;8370;52.556;7.970;2023-02-18T04:25:36;43.43;;;17.67;;
16514;SDS011;8370;52.556;7.970;2023-02-18T04:28:02;37.00;;;17.27;;
16514;SDS011;8370;52.556;7.970;2023-02-18T04:30:27;45.97;;;19.87;;
16514;SDS011;8370;52.556;7.970;2023-02-18T04:32:53;43.83;;;17.20;;
16514;SDS011;8370;52.556;7.970;2023-02-18T04:35:18;41.63;;;17.70;;
16514;SDS011;8370;52.556;7.970;2023-02-18T04:37:44;39.17;;;17.00;;
16514;SDS011;8370;52.556;7.970;2023-02-18T04:40:09;39.67;;;17.80;;
16514;SDS011;8370;52.556;7.970;2023-02-18T04:42:35;43.73;;;17.17;;
16514;SDS011;8370;52.556;7.970;2023-02-18T04:45:01;39.93;;;18.27;;
16514;SDS011;8370;52.556;7.970;2023-02-18T04:47:26;41.50;;;17.50;;
16514;SDS011;8370;52.556;7.970;2023-02-18T04:49:52;43.90;;;18.40;;
16514;SDS011;8370;52.556;7.970;2023-02-18T04:52:18;45.77;;;18.47;;
16514;SDS011;8370;52.556;7.970;2023-02-18T04:54:43;46.30;;;17.73;;
16514;SDS011;8370;52.556;7.970;2023-02-18T04:57:09;41.90;;;16.90;;
16514;SDS011;8370;52.556;7.970;2023-02-18T04:59:35;44.77;;;19.00;;
16514;SDS011;8370;52.556;7.970;2023-02-18T05:02:00;38.77;;;17.70;;
16514;SDS011;8370;52.556;7.970;2023-02-18T05:04:26;46.93;;;18.87;;
16514;SDS011;8370;52.556;7.970;2023-02-18T05:06:51;44.37;;;18.30;;
16514;SDS011;8370;52.556;7.970;2023-02-18T05:09:17;46.17;;;17.73;;
16514;SDS011;8370;52.556;7.970;2023-02-18T05:11:43;43.67;;;17.33;;
16514;SDS011;8370;52.556;7.970;2023-02-18T05:14:09;44.70;;;18.13;;
16514;SDS011;8370;52.556;7.970;2023-02-18T05:16:35;43.77;;;16.77;;
16514;SDS011;8370;52.556;7.970;2023-02-18T05:19:01;41.23;;;15.67;;
16514;SDS011;8370;52.556;7.970;2023-02-18T05:21:26;44.10;;;16.10;;
16514;SDS011;8370;52.556;7.970;2023-02-18T05:23:52;38.50;;;17.33;;
16514;SDS011;8370;52.556;7.970;2023-02-18T05:26:17;39.67;;;17.87;;
16514;SDS011;8370;52.556;7.970;2023-02-18T05:28:43;42.60;;;17.87;;
16514;SDS011;8370;52.556;7.970;2023-02-18T05:31:08;38.77;;;16.33;;
16514;SDS011;8370;52.556;7.970;2023-02-18T05:33:34;40.47;;;16.27;;
16514;SDS011;8370;52.556;7.970;2023-02-18T05:35:59;39.43;;;17.47;;
16514;SDS011;8370;52.556;7.970;2023-02-18T05:38:25;48.77;;;19.73;;
16514;SDS011;8370;52.556;7.970;2023-02-18T05:40:51;38.77;;;16.17;;
16514;SDS011;8370;52.556;7.970;2023-02-18T05:43:16;37.50;;;17.33;;
16514;SDS011;8370;52.556;7.970;2023-02-18T05:45:42;43.97;;;17.90;;
16514;SDS011;8370;52.556;7.970;2023-02-18T05:48:07;44.10;;;18.17;;
16514;SDS011;8370;52.556;7.970;2023-02-18T05:50:33;40.40;;;16.97;;
16514;SDS011;8370;52.556;7.970;2023-02-18T05:52:59;39.07;;;16.80;;
16514;SDS011;8370;52.556;7.970;2023-02-18T05:55:24;34.57;;;13.37;;
16514;SDS011;8370;52.556;7.970;2023-02-18T05:57:50;36.97;;;14.73;;
16514;SDS011;8370;52.556;7.970;2023-02-18T06:00:15;31.60;;;12.87;;
16514;SDS011;8370;52.556;7.970;2023-02-18T06:02:41;30.97;;;14.03;;
16514;SDS011;8370;52.556;7.970;2023-02-18T06:05:07;29.93;;;13.33;;
16514;SDS011;8370;52.556;7.970;2023-02-18T06:07:33;27.63;;;11.93;;
16514;SDS011;8370;52.556;7.970;2023-02-18T06:09:59;27.90;;;11.50;;
16514;SDS011;8370;52.556;7.970;2023-02-18T06:12:24;19.10;;;8.03;;
16514;SDS011;8370;52.556;7.970;2023-02-18T06:14:50;22.40;;;10.57;;
16514;SDS011;8370;52.556;7.970;2023-02-18T06:17:15;26.93;;;10.40;;
16514;SDS011;8370;52.556;7.970;2023-02-18T06:19:42;19.77;;;8.93;;
16514;SDS011;8370;52.556;7.970;2023-02-18T06:22:08;21.30;;;9.17;;
16514;SDS011;8370;52.556;7.970;2023-02-18T06:24:34;21.30;;;9.17;;
16514;SDS011;8370;52.556;7.970;2023-02-18T06:26:59;11.90;;;4.97;;
16514;SDS011;8370;52.556;7.970;2023-02-18T06:29:25;17.43;;;8.17;;
16514;SDS011;8370;52.556;7.970;2023-02-18T06:31:53;16.57;;;7.67;;
16514;SDS011;8370;52.556;7.970;2023-02-18T06:34:19;13.73;;;6.40;;
16514;SDS011;8370;52.556;7.970;2023-02-18T06:36:44;13.53;;;6.93;;
16514;SDS011;8370;52.556;7.970;2023-02-18T06:39:10;11.17;;;5.50;;
16514;SDS011;8370;52.556;7.970;2023-02-18T06:41:35;10.20;;;5.73;;
16514;SDS011;8370;52.556;7.970;2023-02-18T06:44:01;14.20;;;5.83;;
16514;SDS011;8370;52.556;7.970;2023-02-18T06:46:26;13.23;;;6.47;;
16514;SDS011;8370;52.556;7.970;2023-02-18T06:48:52;11.07;;;5.10;;
16514;SDS011;8370;52.556;7.970;2023-02-18T06:51:17;9.57;;;4.30;;
16514;SDS011;8370;52.556;7.970;2023-02-18T06:53:43;8.83;;;4.70;;
16514;SDS011;8370;52.556;7.970;2023-02-18T06:56:10;10.57;;;5.47;;
16514;SDS011;8370;52.556;7.970;2023-02-18T06:58:35;8.60;;;3.47;;
16514;SDS011;8370;52.556;7.970;2023-02-18T07:01:01;7.13;;;3.37;;
16514;SDS011;8370;52.556;7.970;2023-02-18T07:03:27;5.93;;;2.97;;
16514;SDS011;8370;52.556;7.970;2023-02-18T07:05:53;4.87;;;3.30;;
16514;SDS011;8370;52.556;7.970;2023-02-18T07:08:18;5.43;;;3.00;;
16514;SDS011;8370;52.556;7.970;2023-02-18T07:10:44;4.80;;;2.30;;
16514;SDS011;8370;52.556;7.970;2023-02-18T07:13:10;4.00;;;2.27;;
16514;SDS011;8370;52.556;7.970;2023-02-18T07:15:36;2.40;;;1.60;;
16514;SDS011;8370;52.556;7.970;2023-02-18T07:18:01;3.63;;;2.33;;
16514;SDS011;8370;52.556;7.970;2023-02-18T07:20:27;3.43;;;2.07;;
16514;SDS011;8370;52.556;7.970;2023-02-18T07:22:53;5.43;;;3.30;;
16514;SDS011;8370;52.556;7.970;2023-02-18T07:25:18;3.20;;;1.90;;
16514;SDS011;8370;52.556;7.970;2023-02-18T07:27:44;3.43;;;1.77;;
16514;SDS011;8370;52.556;7.970;2023-02-18T07:30:10;4.63;;;2.47;;
16514;SDS011;8370;52.556;7.970;2023-02-18T07:32:36;4.87;;;2.07;;
16514;SDS011;8370;52.556;7.970;2023-02-18T07:35:02;4.03;;;2.40;;
16514;SDS011;8370;52.556;7.970;2023-02-18T07:37:28;3.60;;;1.90;;
16514;SDS011;8370;52.556;7.970;2023-02-18T07:39:55;3.27;;;1.60;;
16514;SDS011;8370;52.556;7.970;2023-02-18T07:42:21;3.57;;;1.70;;
16514;SDS011;8370;52.556;7.970;2023-02-18T07:44:46;2.40;;;1.53;;
16514;SDS011;8370;52.556;7.970;2023-02-18T07:47:13;2.40;;;1.57;;
16514;SDS011;8370;52.556;7.970;2023-02-18T07:49:41;2.77;;;1.03;;
16514;SDS011;8370;52.556;7.970;2023-02-18T07:52:06;2.60;;;1.93;;
16514;SDS011;8370;52.556;7.970;2023-02-18T07:54:32;2.43;;;1.83;;
16514;SDS011;8370;52.556;7.970;2023-02-18T07:56:57;2.10;;;1.43;;
16514;SDS011;8370;52.556;7.970;2023-02-18T07:59:23;1.20;;;1.00;;
16514;SDS011;8370;52.556;7.970;2023-02-18T08:01:49;1.97;;;1.10;;
16514;SDS011;8370;52.556;7.970;2023-02-18T08:04:14;2.50;;;1.17;;
16514;SDS011;8370;52.556;7.970;2023-02-18T08:06:41;1.87;;;1.63;;
16514;SDS011;8370;52.556;7.970;2023-02-18T08:09:09;2.53;;;1.80;;
16514;SDS011;8370;52.556;7.970;2023-02-18T08:11:35;2.23;;;1.50;;
16514;SDS011;8370;52.556;7.970;2023-02-18T08:14:00;1.77;;;1.30;;
16514;SDS011;8370;52.556;7.970;2023-02-18T08:16:26;2.17;;;1.63;;
16514;SDS011;8370;52.556;7.970;2023-02-18T08:18:52;1.07;;;0.73;;
16514;SDS011;8370;52.556;7.970;2023-02-18T08:21:18;1.20;;;1.00;;
16514;SDS011;8370;52.556;7.970;2023-02-18T08:23:46;2.33;;;1.33;;
16514;SDS011;8370;52.556;7.970;2023-02-18T08:26:12;2.20;;;1.47;;
16514;SDS011;8370;52.556;7.970;2023-02-18T08:28:38;2.07;;;1.23;;
16514;SDS011;8370;52.556;7.970;2023-02-18T08:31:04;0.70;;;0.70;;
16514;SDS011;8370;52.556;7.970;2023-02-18T08:33:30;1.67;;;1.13;;
16514;SDS011;8370;52.556;7.970;2023-02-18T08:35:56;1.97;;;1.33;;
16514;SDS011;8370;52.556;7.970;2023-02-18T08:38:22;1.90;;;1.27;;
16514;SDS011;8370;52.556;7.970;2023-02-18T08:40:48;1.00;;;0.40;;
16514;SDS011;8370;52.556;7.970;2023-02-18T08:43:14;1.63;;;1.10;;
16514;SDS011;8370;52.556;7.970;2023-02-18T08:45:42;1.07;;;0.87;;
16514;SDS011;8370;52.556;7.970;2023-02-18T08:48:08;0.83;;;0.73;;
16514;SDS011;8370;52.556;7.970;2023-02-18T08:50:36;1.13;;;1.03;;
16514;SDS011;8370;52.556;7.970;2023-02-18T08:53:01;3.53;;;1.33;;
16514;SDS011;8370;52.556;7.970;2023-02-18T08:55:28;2.17;;;1.30;;
16514;SDS011;8370;52.556;7.970;2023-02-18T08:57:54;5.37;;;1.80;;
16514;SDS011;8370;52.556;7.970;2023-02-18T09:00:20;2.33;;;1.47;;
16514;SDS011;8370;52.556;7.970;2023-02-18T09:02:46;4.07;;;2.87;;
16514;SDS011;8370;52.556;7.970;2023-02-18T09:05:12;4.17;;;1.97;;
16514;SDS011;8370;52.556;7.970;2023-02-18T09:07:38;6.70;;;3.17;;
16514;SDS011;8370;52.556;7.970;2023-02-18T09:10:04;9.07;;;4.30;;
16514;SDS011;8370;52.556;7.970;2023-02-18T09:12:30;5.73;;;3.47;;
16514;SDS011;8370;52.556;7.970;2023-02-18T09:14:55;9.87;;;4.27;;
16514;SDS011;8370;52.556;7.970;2023-02-18T09:17:21;5.03;;;3.30;;
16514;SDS011;8370;52.556;7.970;2023-02-18T09:19:46;11.80;;;5.53;;
16514;SDS011;8370;52.556;7.970;2023-02-18T09:22:12;7.10;;;4.30;;
16514;SDS011;8370;52.556;7.970;2023-02-18T09:24:38;9.10;;;5.03;;
16514;SDS011;8370;52.556;7.970;2023-02-18T09:27:05;15.93;;;6.57;;
16514;SDS011;8370;52.556;7.970;2023-02-18T09:29:32;10.73;;;6.10;;
16514;SDS011;8370;52.556;7.970;2023-02-18T09:32:01;7.83;;;3.47;;
16514;SDS011;8370;52.556;7.970;2023-02-18T09:34:27;8.20;;;4.93;;
16514;SDS011;8370;52.556;7.970;2023-02-18T09:36:53;11.10;;;5.43;;
16514;SDS011;8370;52.556;7.970;2023-02-18T09:39:19;6.97;;;4.60;;
16514;SDS011;8370;52.556;7.970;2023-02-18T09:42:01;6.63;;;4.47;;
16514;SDS011;8370;52.556;7.970;2023-02-18T09:44:33;6.47;;;3.43;;
16514;SDS011;8370;52.556;7.970;2023-02-18T09:47:04;4.63;;;2.47;;
16514;SDS011;8370;52.556;7.970;2023-02-18T09:49:38;6.70;;;3.53;;
